Time;durP1;ratioP1;P1;durP2;ratioP2;P2;SDS_P1;SDS_P2;PMS_P1;PMS_P2;Temp;Humidity;BMP_temperature;BMP_pressure;BME280_temperature;BME280_humidity;BME280_pressure;Samples;Min_cycle;Max_cycle;Signal;HPM_P1;HPM_P2
2023/01/21 00:01:05;;;;;;;3.70;0.63;;;29.10;55.40;;;;;;5047769;28;20028;-66
2023/01/21 00:03:33;;;;;;;5.60;1.30;;;28.50;56.60;;;;;;5048029;28;20036;-66
2023/01/21 00:06:01;;;;;;;6.90;0.90;;;28.60;56.80;;;;;;5046852;28;20560;-66
2023/01/21 00:08:28;;;;;;;4.53;1.45;;;29.00;59.30;;;;;;5046105;28;20029;-66
2023/01/21 00:10:56;;;;;;;4.50;0.93;;;29.20;55.30;;;;;;5042469;28;20052;-66
2023/01/21 00:13:23;;;;;;;6.78;0.88;;;29.30;54.30;;;;;;5047211;28;20060;-67
2023/01/21 00:15:53;;;;;;;2.58;0.60;;;29.20;54.40;;;;;;5047101;28;20065;-65
2023/01/21 00:18:21;;;;;;;5.13;0.80;;;29.10;55.40;;;;;;5049258;28;20037;-66
2023/01/21 00:20:48;;;;;;;4.25;0.65;;;29.40;53.80;;;;;;5047257;28;20153;-66
2023/01/21 00:23:15;;;;;;;4.38;0.68;;;29.40;58.50;;;;;;5048800;28;20029;-67
2023/01/21 00:25:43;;;;;;;4.63;0.68;;;29.90;57.50;;;;;;5049122;28;20110;-67
2023/01/21 00:28:10;;;;;;;6.53;1.25;;;30.40;56.60;;;;;;5049590;28;20216;-67
2023/01/21 00:30:38;;;;;;;3.13;0.85;;;30.80;54.90;;;;;;5046207;28;20037;-67
2023/01/21 00:33:05;;;;;;;3.15;0.70;;;30.90;52.30;;;;;;5048930;28;20054;-67
2023/01/21 00:35:33;;;;;;;5.38;0.85;;;31.00;52.80;;;;;;5048842;28;20032;-66
2023/01/21 00:38:00;;;;;;;3.97;0.90;;;30.40;52.20;;;;;;5047355;28;20528;-66
2023/01/21 00:40:27;;;;;;;4.45;1.13;;;29.20;53.10;;;;;;5048165;28;20033;-67
2023/01/21 00:42:55;;;;;;;3.65;0.82;;;28.90;56.00;;;;;;5048024;28;20390;-67
2023/01/21 00:45:22;;;;;;;7.22;0.80;;;29.20;55.70;;;;;;5047049;28;20029;-67
2023/01/21 00:47:49;;;;;;;3.50;0.80;;;28.90;56.10;;;;;;5049147;28;20052;-66
2023/01/21 00:50:17;;;;;;;5.60;1.02;;;28.80;55.80;;;;;;5042737;28;20092;-69
2023/01/21 00:52:44;;;;;;;4.90;0.98;;;28.40;56.40;;;;;;5049426;28;20025;-68
2023/01/21 00:55:11;;;;;;;6.03;0.98;;;28.70;56.10;;;;;;5045073;28;20421;-68
2023/01/21 00:57:39;;;;;;;8.32;1.33;;;28.70;55.20;;;;;;5043493;28;20036;-70
2023/01/21 01:00:09;;;;;;;3.95;0.68;;;28.40;54.70;;;;;;5045833;28;20032;-71
2023/01/21 01:02:37;;;;;;;3.78;0.80;;;27.90;56.50;;;;;;5046117;28;20082;-70
2023/01/21 01:05:07;;;;;;;4.75;1.05;;;27.60;57.20;;;;;;5047665;28;20036;-71
2023/01/21 01:07:35;;;;;;;7.85;0.98;;;27.60;57.50;;;;;;5048905;28;20024;-70
2023/01/21 01:10:02;;;;;;;4.68;1.08;;;27.70;61.20;;;;;;5048926;28;20060;-68
2023/01/21 01:12:29;;;;;;;5.47;0.82;;;27.90;57.40;;;;;;5046887;28;20041;-73
2023/01/21 01:14:57;;;;;;;5.70;0.98;;;28.20;56.70;;;;;;5042851;28;20025;-73
2023/01/21 01:17:24;;;;;;;3.20;0.70;;;28.50;57.40;;;;;;5046252;28;20032;-71
2023/01/21 01:19:52;;;;;;;7.07;0.85;;;28.70;57.70;;;;;;5047909;28;20083;-70
2023/01/21 01:22:19;;;;;;;2.90;0.73;;;29.10;61.10;;;;;;5047822;28;20664;-70
2023/01/21 01:24:47;;;;;;;2.95;1.02;;;29.70;61.50;;;;;;5049032;28;20029;-73
2023/01/21 01:27:14;;;;;;;6.32;1.83;;;30.10;56.10;;;;;;5047372;28;20440;-74
2023/01/21 01:29:41;;;;;;;4.50;0.90;;;29.70;53.70;;;;;;5047068;28;20045;-70
2023/01/21 01:32:10;;;;;;;1.73;0.65;;;29.40;53.10;;;;;;5044731;28;20124;-72
2023/01/21 01:34:37;;;;;;;4.28;1.00;;;29.20;54.00;;;;;;5048246;28;20024;-72
2023/01/21 01:37:04;;;;;;;4.00;0.70;;;28.30;53.80;;;;;;5049167;28;20664;-73
2023/01/21 01:39:32;;;;;;;6.75;1.00;;;28.00;56.40;;;;;;5043837;28;20025;-74
2023/01/21 01:41:59;;;;;;;7.13;0.85;;;27.60;56.00;;;;;;5043495;28;20075;-76
2023/01/21 01:44:55;;;;;;;4.00;0.85;;;27.30;56.60;;;;;;5047501;28;20033;-74
2023/01/21 01:47:31;;;;;;;5.70;1.08;;;26.90;58.00;;;;;;5033778;28;20503;-73
2023/01/21 01:50:00;;;;;;;4.97;0.88;;;26.90;58.70;;;;;;5045734;28;20033;-70
2023/01/21 01:52:28;;;;;;;5.25;1.10;;;27.00;59.60;;;;;;5042975;28;20489;-69
2023/01/21 01:54:59;;;;;;;10.27;1.45;;;27.80;62.70;;;;;;5045832;28;20017;-69
2023/01/21 01:57:42;;;;;;;2.65;0.80;;;28.70;58.20;;;;;;5044766;28;20404;-69
2023/01/21 02:00:12;;;;;;;3.27;0.70;;;29.10;55.70;;;;;;5046530;28;20486;-68
2023/01/21 02:03:43;;;;;;;2.92;1.00;;;28.90;54.30;;;;;;5030528;28;20025;-68
2023/01/21 02:05:33;;;;;;;4.95;0.88;;;28.70;55.60;;;;;;5047401;28;20056;-66
2023/01/21 02:08:01;;;;;;;3.95;1.00;;;27.70;58.00;;;;;;5048475;28;20017;-66
2023/01/21 02:10:30;;;;;;;7.10;1.13;;;27.40;57.90;;;;;;5048759;28;20516;-65
2023/01/21 02:12:58;;;;;;;4.93;0.82;;;27.00;59.20;;;;;;5046035;28;20021;-67
2023/01/21 02:15:39;;;;;;;4.57;0.80;;;26.70;60.90;;;;;;5048176;28;20017;-68
2023/01/21 02:18:24;;;;;;;3.63;0.93;;;26.80;60.00;;;;;;5047933;28;20029;-67
2023/01/21 02:21:27;;;;;;;8.20;1.13;;;26.40;61.10;;;;;;5044980;28;20025;-67
2023/01/21 02:24:16;;;;;;;6.95;1.33;;;26.10;62.30;;;;;;5045058;28;20022;-68
2023/01/21 02:27:01;;;;;;;11.98;1.67;;;25.90;64.30;;;;;;5042776;28;20429;-68
2023/01/21 02:29:51;;;;;;;5.63;1.20;;;25.80;64.80;;;;;;5046107;28;20559;-66
2023/01/21 02:32:53;;;;;;;5.97;1.50;;;25.60;65.40;;;;;;5017468;28;20537;-67
2023/01/21 02:35:26;;;;;;;8.90;1.63;;;25.40;67.00;;;;;;5039044;28;20389;-66
2023/01/21 02:37:53;;;;;;;6.93;1.23;;;25.40;69.00;;;;;;5036090;28;20083;-68
2023/01/21 02:40:50;;;;;;;5.20;1.00;;;25.10;69.20;;;;;;5035279;28;20024;-68
2023/01/21 02:43:48;;;;;;;4.03;1.02;;;24.90;73.10;;;;;;5034464;28;20021;-67
2023/01/21 02:46:48;;;;;;;9.25;1.40;;;25.10;73.70;;;;;;5059776;28;20071;-65
2023/01/21 02:49:18;;;;;;;5.45;1.42;;;26.10;71.10;;;;;;5040275;28;20029;-68
2023/01/21 02:51:47;;;;;;;12.45;1.80;;;25.90;70.30;;;;;;5044959;28;20032;-68
2023/01/21 02:54:39;;;;;;;5.03;0.80;;;25.80;71.00;;;;;;5045802;28;20541;-67
2023/01/21 02:57:15;;;;;;;3.78;1.00;;;25.60;71.60;;;;;;5045863;28;20896;-67
2023/01/21 02:59:47;;;;;;;7.40;1.38;;;26.00;71.60;;;;;;5044842;28;20524;-69
2023/01/21 03:02:32;;;;;;;6.25;1.15;;;26.10;69.60;;;;;;5036704;28;20041;-68
2023/01/21 03:05:27;;;;;;;5.85;1.60;;;25.80;69.30;;;;;;5045883;28;20032;-68
2023/01/21 03:08:22;;;;;;;5.38;0.93;;;25.70;69.40;;;;;;5045243;28;20025;-68
2023/01/21 03:11:09;;;;;;;3.67;0.80;;;25.60;70.80;;;;;;5040876;28;20037;-68
2023/01/21 03:16:56;;;;;;;8.57;1.00;;;26.20;69.90;;;;;;5040766;28;20163;-67
2023/01/21 03:19:51;;;;;;;6.78;0.90;;;26.30;67.60;;;;;;5039638;28;20025;-67
2023/01/21 03:22:24;;;;;;;6.55;1.23;;;26.20;70.00;;;;;;5041721;28;20107;-66
2023/01/21 03:24:55;;;;;;;2.70;0.65;;;26.00;69.60;;;;;;5045760;28;20029;-67
2023/01/21 03:27:25;;;;;;;6.47;1.25;;;25.70;69.70;;;;;;5046791;28;20028;-66
2023/01/21 03:29:58;;;;;;;5.38;0.80;;;25.70;70.30;;;;;;5046385;28;20457;-67
2023/01/21 03:32:29;;;;;;;6.30;1.00;;;26.20;71.40;;;;;;5039202;28;20033;-67
2023/01/21 03:34:58;;;;;;;5.72;0.85;;;26.30;68.40;;;;;;5059010;28;20109;-67
2023/01/21 03:37:54;;;;;;;5.32;0.70;;;26.20;69.70;;;;;;5043373;28;20029;-68
2023/01/21 03:40:32;;;;;;;5.13;0.95;;;26.50;71.10;;;;;;5038745;28;20555;-68
2023/01/21 03:42:59;;;;;;;3.88;0.75;;;27.10;67.40;;;;;;5040751;28;20094;-68
2023/01/21 03:45:35;;;;;;;5.53;0.60;;;27.40;67.90;;;;;;5040875;28;20029;-67
2023/01/21 03:48:41;;;;;;;6.18;1.10;;;27.40;67.50;;;;;;5039828;28;20103;-68
2023/01/21 03:51:25;;;;;;;4.15;0.70;;;27.00;69.00;;;;;;5040170;28;20048;-67
2023/01/21 03:53:56;;;;;;;1.42;0.60;;;27.00;69.10;;;;;;5041685;28;20029;-65
2023/01/21 03:56:25;;;;;;;5.90;1.40;;;26.80;69.20;;;;;;5046920;28;20078;-66
2023/01/21 03:58:53;;;;;;;5.85;0.65;;;26.60;70.80;;;;;;5048133;28;20025;-67
2023/01/21 04:01:20;;;;;;;3.05;0.70;;;26.80;70.60;;;;;;5050456;28;20021;-67
2023/01/21 04:03:48;;;;;;;3.42;0.85;;;26.80;69.50;;;;;;5047883;28;20053;-66
2023/01/21 04:06:21;;;;;;;5.07;1.30;;;27.00;70.80;;;;;;5047318;28;20017;-67
2023/01/21 04:08:48;;;;;;;3.00;0.50;;;27.10;71.00;;;;;;5044841;28;20803;-67
2023/01/21 04:11:16;;;;;;;2.95;0.70;;;27.20;70.30;;;;;;5046900;28;20029;-69
2023/01/21 04:13:43;;;;;;;4.93;0.90;;;26.80;69.20;;;;;;5048703;28;20074;-67
2023/01/21 04:16:11;;;;;;;3.35;0.93;;;27.00;68.70;;;;;;5050000;28;20144;-67
2023/01/21 04:18:38;;;;;;;3.85;0.85;;;26.80;71.40;;;;;;5049943;28;20025;-66
2023/01/21 04:21:05;;;;;;;3.25;0.82;;;26.90;70.80;;;;;;5047461;28;20029;-66
2023/01/21 04:23:33;;;;;;;4.25;0.80;;;27.00;71.50;;;;;;5049791;28;20021;-65
2023/01/21 04:26:00;;;;;;;2.67;0.75;;;27.00;70.50;;;;;;5050190;28;20021;-65
2023/01/21 04:28:27;;;;;;;1.40;0.65;;;26.80;70.80;;;;;;5049544;28;20025;-69
2023/01/21 04:30:54;;;;;;;2.45;0.73;;;26.70;72.50;;;;;;5047753;28;20041;-70
2023/01/21 04:33:22;;;;;;;2.38;0.60;;;26.60;73.00;;;;;;5046500;28;20029;-67
2023/01/21 04:35:49;;;;;;;6.90;1.33;;;27.10;72.30;;;;;;5048752;28;20021;-66
2023/01/21 04:38:17;;;;;;;5.07;1.48;;;27.60;69.10;;;;;;5045762;28;20040;-70
2023/01/21 04:40:44;;;;;;;5.15;0.80;;;27.60;69.40;;;;;;5047856;28;20048;-66
2023/01/21 04:43:12;;;;;;;3.65;0.88;;;27.40;69.30;;;;;;5045597;28;20073;-68
2023/01/21 04:45:39;;;;;;;3.35;0.82;;;26.70;69.00;;;;;;5045537;28;20108;-67
2023/01/21 04:48:06;;;;;;;3.08;0.70;;;26.40;71.70;;;;;;5049070;28;20020;-64
2023/01/21 04:50:34;;;;;;;5.18;0.80;;;26.10;74.80;;;;;;5050389;28;20021;-68
2023/01/21 04:53:01;;;;;;;2.65;0.65;;;26.10;75.70;;;;;;5044778;28;20025;-67
2023/01/21 04:55:29;;;;;;;4.30;0.80;;;25.80;76.30;;;;;;5049422;28;20025;-68
2023/01/21 04:57:56;;;;;;;3.80;0.95;;;25.60;79.20;;;;;;5048991;28;20121;-68
2023/01/21 05:00:23;;;;;;;4.88;1.17;;;25.10;83.80;;;;;;5048116;28;20044;-66
2023/01/21 05:02:51;;;;;;;4.82;0.82;;;25.20;86.00;;;;;;5048940;28;20037;-65
2023/01/21 05:05:18;;;;;;;3.25;0.68;;;25.10;87.40;;;;;;5049780;28;20029;-65
2023/01/21 05:07:46;;;;;;;4.78;0.85;;;25.40;86.00;;;;;;5050709;28;20022;-65
2023/01/21 05:10:17;;;;;;;3.70;0.75;;;25.00;86.50;;;;;;5036008;28;20025;-64
2023/01/21 05:12:44;;;;;;;5.75;1.00;;;24.80;88.20;;;;;;5041424;28;20829;-68
2023/01/21 05:15:12;;;;;;;5.50;0.90;;;24.70;88.90;;;;;;5050733;28;20254;-68
2023/01/21 05:17:39;;;;;;;6.50;0.80;;;24.60;89.20;;;;;;5046544;28;20036;-67
2023/01/21 05:20:07;;;;;;;7.10;1.58;;;24.70;89.00;;;;;;5050405;28;20029;-67
2023/01/21 05:22:34;;;;;;;4.43;0.88;;;24.80;87.30;;;;;;5049994;28;20655;-66
2023/01/21 05:25:02;;;;;;;2.92;0.80;;;24.70;86.80;;;;;;5049595;28;20359;-67
2023/01/21 05:27:29;;;;;;;4.07;1.02;;;24.60;88.90;;;;;;5050225;28;20052;-68
2023/01/21 05:29:56;;;;;;;4.85;0.70;;;24.80;86.90;;;;;;5050414;28;20056;-73
2023/01/21 05:32:24;;;;;;;7.40;1.48;;;24.60;85.70;;;;;;5050236;28;20060;-68
2023/01/21 05:34:51;;;;;;;4.53;1.05;;;24.80;85.60;;;;;;5050924;28;20016;-69
2023/01/21 05:37:19;;;;;;;6.72;1.40;;;25.20;84.20;;;;;;5030627;28;20108;-68
2023/01/21 05:39:46;;;;;;;3.47;0.80;;;25.30;84.80;;;;;;5040253;28;20036;-69
2023/01/21 05:42:14;;;;;;;3.47;1.10;;;25.50;85.10;;;;;;5047672;28;20083;-71
2023/01/21 05:44:41;;;;;;;6.80;0.70;;;25.40;85.90;;;;;;5046380;28;20079;-69
2023/01/21 05:47:08;;;;;;;5.57;0.93;;;25.60;84.50;;;;;;5047603;28;20032;-70
2023/01/21 05:49:36;;;;;;;8.50;1.30;;;25.40;84.80;;;;;;5046988;28;20039;-69
2023/01/21 05:52:03;;;;;;;5.82;1.05;;;25.40;84.20;;;;;;5047770;28;20119;-69
2023/01/21 05:54:30;;;;;;;4.82;1.15;;;24.80;85.80;;;;;;5047328;28;20048;-69
2023/01/21 05:56:57;;;;;;;3.70;0.70;;;24.50;86.60;;;;;;5047497;28;20028;-69
2023/01/21 05:59:25;;;;;;;2.28;0.77;;;24.60;88.40;;;;;;5046948;28;20103;-69
2023/01/21 06:01:52;;;;;;;4.03;1.25;;;24.70;86.10;;;;;;5047664;28;20072;-69
2023/01/21 06:04:19;;;;;;;5.28;1.17;;;24.90;84.80;;;;;;5047517;28;20489;-68
2023/01/21 06:06:47;;;;;;;7.35;1.30;;;25.00;85.70;;;;;;5048138;28;20040;-70
2023/01/21 06:09:14;;;;;;;6.00;0.95;;;24.70;85.00;;;;;;5047945;28;20115;-70
2023/01/21 06:11:41;;;;;;;2.38;0.80;;;24.70;84.50;;;;;;5046433;28;20662;-71
2023/01/21 06:14:11;;;;;;;7.28;1.52;;;24.60;84.00;;;;;;5047438;28;20377;-69
2023/01/21 06:16:38;;;;;;;4.60;1.15;;;24.40;85.30;;;;;;5047041;28;20035;-69
2023/01/21 06:19:05;;;;;;;2.63;0.70;;;24.40;86.00;;;;;;5046202;28;20020;-70
2023/01/21 06:21:33;;;;;;;3.03;0.95;;;24.20;85.50;;;;;;5045370;28;20579;-70
2023/01/21 06:24:01;;;;;;;6.10;1.15;;;24.00;88.90;;;;;;5047024;28;20389;-71
2023/01/21 06:26:28;;;;;;;6.35;1.08;;;23.90;90.40;;;;;;5047035;28;20430;-72
2023/01/21 06:28:56;;;;;;;7.43;0.90;;;24.20;91.50;;;;;;5045245;28;20507;-72
2023/01/21 06:31:24;;;;;;;7.30;1.17;;;24.40;90.90;;;;;;5045255;28;20049;-74
2023/01/21 06:33:51;;;;;;;4.68;1.15;;;24.50;90.70;;;;;;5047040;28;20029;-69
2023/01/21 06:36:19;;;;;;;3.80;1.23;;;24.60;90.30;;;;;;5044784;28;20492;-72
2023/01/21 06:38:46;;;;;;;9.50;1.05;;;24.60;90.40;;;;;;5046267;28;20028;-71
2023/01/21 06:41:13;;;;;;;2.92;1.00;;;24.60;90.10;;;;;;5024231;28;20029;-70
2023/01/21 06:43:41;;;;;;;4.22;0.85;;;24.80;90.30;;;;;;5026855;28;20017;-71
2023/01/21 06:46:09;;;;;;;3.92;1.10;;;24.90;89.40;;;;;;5027144;28;20538;-70
2023/01/21 06:48:37;;;;;;;8.05;1.50;;;24.80;88.00;;;;;;5026952;28;20028;-71
2023/01/21 06:51:04;;;;;;;8.65;0.75;;;24.80;88.50;;;;;;5027094;28;20033;-70
2023/01/21 06:53:31;;;;;;;4.35;0.93;;;24.80;90.00;;;;;;5027309;28;20025;-71
2023/01/21 06:55:59;;;;;;;4.28;0.70;;;24.70;87.40;;;;;;5026302;28;20044;-72
2023/01/21 06:58:26;;;;;;;3.30;0.73;;;24.60;88.30;;;;;;5024988;28;20037;-71
2023/01/21 07:00:56;;;;;;;2.72;0.77;;;24.50;88.20;;;;;;5023507;28;20029;-71
2023/01/21 07:03:24;;;;;;;4.63;0.80;;;24.40;89.60;;;;;;5025223;28;20032;-70
2023/01/21 07:05:51;;;;;;;4.40;0.63;;;24.30;90.00;;;;;;5036001;28;20029;-72
2023/01/21 07:08:18;;;;;;;3.33;0.95;;;24.30;90.50;;;;;;5044680;28;20037;-72
2023/01/21 07:10:46;;;;;;;4.10;0.90;;;24.20;90.20;;;;;;5045422;28;20171;-71
2023/01/21 07:13:13;;;;;;;2.80;0.73;;;24.10;90.90;;;;;;5046265;28;20132;-71
2023/01/21 07:15:40;;;;;;;8.20;1.17;;;24.20;91.10;;;;;;5039022;28;20022;-71
2023/01/21 07:18:08;;;;;;;11.55;1.00;;;24.00;90.90;;;;;;5027300;28;20022;-72
2023/01/21 07:20:37;;;;;;;4.43;0.70;;;23.70;91.50;;;;;;5028068;28;20037;-73
2023/01/21 07:23:05;;;;;;;3.55;0.85;;;23.40;92.30;;;;;;5042784;28;20033;-72
2023/01/21 07:25:34;;;;;;;2.35;0.85;;;23.20;93.50;;;;;;5048393;28;20044;-72
2023/01/21 07:28:02;;;;;;;4.97;0.70;;;23.20;93.90;;;;;;5048151;28;20032;-71
2023/01/21 07:30:30;;;;;;;7.75;1.55;;;23.10;94.20;;;;;;5049988;28;20048;-71
2023/01/21 07:32:57;;;;;;;8.07;1.05;;;22.90;95.10;;;;;;5052996;28;20044;-71
2023/01/21 07:35:25;;;;;;;5.25;1.17;;;22.70;96.10;;;;;;5051212;28;20143;-70
2023/01/21 07:37:52;;;;;;;5.28;0.75;;;22.60;97.30;;;;;;5051884;28;20078;-71
2023/01/21 07:40:19;;;;;;;7.53;1.25;;;22.50;97.80;;;;;;5050325;28;20025;-65
2023/01/21 07:42:51;;;;;;;3.78;0.80;;;22.40;98.30;;;;;;5050069;28;20025;-70
2023/01/21 07:45:20;;;;;;;3.35;0.60;;;22.30;98.30;;;;;;5046971;28;20032;-71
2023/01/21 07:47:47;;;;;;;10.57;1.38;;;22.20;98.80;;;;;;5045076;28;20125;-72
2023/01/21 07:50:15;;;;;;;6.18;1.25;;;22.10;99.10;;;;;;5046764;28;20033;-72
2023/01/21 07:52:42;;;;;;;2.47;0.77;;;22.00;99.80;;;;;;5050099;28;20120;-72
2023/01/21 07:55:10;;;;;;;5.55;0.68;;;21.90;99.90;;;;;;5050414;28;20040;-73
2023/01/21 07:57:37;;;;;;;4.00;1.15;;;21.90;99.90;;;;;;5050939;28;20029;-74
2023/01/21 08:00:05;;;;;;;3.10;0.95;;;21.90;99.90;;;;;;5050898;28;20024;-73
2023/01/21 08:02:33;;;;;;;4.63;1.85;;;21.70;99.90;;;;;;5050983;28;20017;-72
2023/01/21 08:05:00;;;;;;;6.65;1.23;;;21.60;99.90;;;;;;5049849;28;20071;-72
2023/01/21 08:07:28;;;;;;;3.28;0.90;;;21.50;99.90;;;;;;5051447;28;20021;-72
2023/01/21 08:09:55;;;;;;;6.43;1.50;;;21.50;99.90;;;;;;5052443;28;20100;-72
2023/01/21 08:12:22;;;;;;;7.60;2.53;;;21.40;99.90;;;;;;5050749;28;20037;-70
2023/01/21 08:14:50;;;;;;;5.05;1.42;;;21.40;99.90;;;;;;5052715;28;20442;-71
2023/01/21 08:17:17;;;;;;;6.25;1.20;;;21.40;99.90;;;;;;5051967;28;20108;-72
2023/01/21 08:19:45;;;;;;;7.60;2.17;;;21.30;99.90;;;;;;5052308;28;20389;-73
2023/01/21 08:22:12;;;;;;;6.53;1.65;;;21.30;99.90;;;;;;5050329;28;20033;-72
2023/01/21 08:24:39;;;;;;;4.03;0.93;;;21.30;99.90;;;;;;5051981;28;20022;-73
2023/01/21 08:27:07;;;;;;;4.25;0.80;;;21.20;99.90;;;;;;5052017;28;20481;-72
2023/01/21 08:29:34;;;;;;;4.88;1.05;;;21.20;99.90;;;;;;5051705;28;20033;-72
2023/01/21 08:32:02;;;;;;;2.90;0.80;;;21.20;99.90;;;;;;5051585;28;20086;-73
2023/01/21 08:34:29;;;;;;;6.65;1.20;;;21.20;99.90;;;;;;5051791;28;20072;-73
2023/01/21 08:36:57;;;;;;;5.38;1.38;;;21.10;99.90;;;;;;5051893;28;20028;-72
2023/01/21 08:39:24;;;;;;;5.68;1.42;;;21.20;99.90;;;;;;5051716;28;20033;-72
2023/01/21 08:41:51;;;;;;;5.80;1.08;;;21.20;99.90;;;;;;5051173;28;20025;-72
2023/01/21 08:44:18;;;;;;;10.20;1.33;;;21.20;99.90;;;;;;5051977;28;20067;-72
2023/01/21 08:46:46;;;;;;;8.00;1.00;;;21.10;99.90;;;;;;5051674;28;20422;-72
2023/01/21 08:49:13;;;;;;;8.00;1.13;;;21.10;99.90;;;;;;5050087;28;20623;-72
2023/01/21 08:51:40;;;;;;;7.55;1.73;;;21.10;99.90;;;;;;5051357;28;20470;-72
2023/01/21 08:54:08;;;;;;;6.65;0.80;;;21.10;99.90;;;;;;5051397;28;20021;-73
2023/01/21 08:56:36;;;;;;;5.45;0.80;;;21.00;99.90;;;;;;5050078;28;20029;-72
2023/01/21 08:59:03;;;;;;;7.43;1.05;;;21.00;99.90;;;;;;5051116;28;20058;-72
2023/01/21 09:01:30;;;;;;;4.40;0.80;;;21.00;99.90;;;;;;5031456;28;20074;-72
2023/01/21 09:03:59;;;;;;;6.40;0.70;;;20.90;99.90;;;;;;5031325;28;20055;-72
2023/01/21 09:06:29;;;;;;;6.85;0.90;;;20.90;99.90;;;;;;5049645;28;20553;-72
2023/01/21 09:08:57;;;;;;;4.57;0.90;;;20.80;99.90;;;;;;5051198;28;20078;-71
2023/01/21 09:11:25;;;;;;;5.70;1.13;;;20.70;99.90;;;;;;5051175;28;20036;-72
2023/01/21 09:13:52;;;;;;;5.30;1.27;;;20.70;99.90;;;;;;5050144;28;20028;-73
2023/01/21 09:16:22;;;;;;;8.23;1.23;;;20.70;99.90;;;;;;5051459;28;20017;-73
2023/01/21 09:18:49;;;;;;;10.88;0.95;;;20.70;99.90;;;;;;5051450;28;20501;-73
2023/01/21 09:21:17;;;;;;;4.68;0.98;;;20.60;99.90;;;;;;5051072;28;20095;-72
2023/01/21 09:23:44;;;;;;;6.60;0.98;;;20.60;99.90;;;;;;5050895;28;20330;-73
2023/01/21 09:26:19;;;;;;;5.85;1.13;;;20.50;99.90;;;;;;5050838;28;20392;-73
2023/01/21 09:28:56;;;;;;;5.75;1.00;;;20.50;99.90;;;;;;5050902;28;20017;-72
2023/01/21 09:31:24;;;;;;;5.90;1.40;;;20.50;99.90;;;;;;5050812;28;20049;-73
2023/01/21 09:33:58;;;;;;;7.88;1.13;;;20.50;99.90;;;;;;5050966;28;20401;-72
2023/01/21 09:36:29;;;;;;;4.47;0.85;;;20.40;99.90;;;;;;5050634;28;20083;-71
2023/01/21 09:38:56;;;;;;;4.03;0.73;;;20.50;99.90;;;;;;5050588;28;20043;-72
2023/01/21 09:41:49;;;;;;;4.40;0.82;;;20.50;99.90;;;;;;5050738;28;20051;-67
2023/01/21 09:44:38;;;;;;;9.20;2.13;;;20.50;99.90;;;;;;5049346;28;20048;-73
2023/01/21 09:47:18;;;;;;;6.70;1.08;;;20.50;99.90;;;;;;5050843;28;20020;-73
2023/01/21 09:50:13;;;;;;;11.77;1.30;;;20.60;99.90;;;;;;5029346;28;20029;-72
2023/01/21 09:52:46;;;;;;;4.00;1.00;;;20.60;99.90;;;;;;5026609;28;20452;-72
2023/01/21 09:55:30;;;;;;;5.80;1.13;;;20.60;99.90;;;;;;5034846;28;20090;-72
2023/01/21 09:57:57;;;;;;;5.67;2.30;;;20.60;99.90;;;;;;5034160;28;20029;-73
2023/01/21 10:00:33;;;;;;;5.57;1.35;;;20.60;99.90;;;;;;5030483;28;20475;-71
2023/01/21 10:03:03;;;;;;;5.05;0.90;;;20.60;99.90;;;;;;5030427;28;20030;-73
2023/01/21 10:05:52;;;;;;;6.32;1.73;;;20.60;99.90;;;;;;5030136;28;20025;-72
2023/01/21 10:08:43;;;;;;;4.95;1.52;;;20.50;99.90;;;;;;5039449;28;20051;-72
2023/01/21 10:11:54;;;;;;;5.63;0.88;;;20.50;99.90;;;;;;5050150;28;20032;-73
2023/01/21 10:14:44;;;;;;;4.38;0.93;;;20.50;99.90;;;;;;5049086;28;20171;-73
2023/01/21 10:17:27;;;;;;;7.03;0.75;;;20.40;99.90;;;;;;5044454;28;20501;-73
2023/01/21 10:20:20;;;;;;;6.43;0.90;;;20.40;99.90;;;;;;5050344;28;20025;-72
2023/01/21 10:22:57;;;;;;;1.90;0.90;;;20.30;99.90;;;;;;5044114;28;20060;-73
2023/01/21 10:25:45;;;;;;;8.38;1.02;;;20.20;99.90;;;;;;5050420;28;20025;-72
2023/01/21 10:28:24;;;;;;;3.63;0.80;;;20.20;99.90;;;;;;5048031;28;20017;-72
2023/01/21 10:31:16;;;;;;;8.13;1.95;;;20.10;99.90;;;;;;5050019;28;20132;-72
2023/01/21 10:33:43;;;;;;;3.45;0.63;;;20.10;99.90;;;;;;5049608;28;20032;-73
2023/01/21 10:36:40;;;;;;;6.68;1.02;;;20.00;99.90;;;;;;5049644;28;20111;-73
2023/01/21 10:39:39;;;;;;;3.40;1.00;;;19.90;99.90;;;;;;5049699;28;20018;-73
2023/01/21 10:42:15;;;;;;;4.32;1.63;;;19.90;99.90;;;;;;5049636;28;20100;-73
2023/01/21 10:45:19;;;;;;;8.20;1.10;;;19.80;99.90;;;;;;5049772;28;20646;-73
2023/01/21 10:48:31;;;;;;;2.63;0.93;;;19.80;99.90;;;;;;5049179;28;20405;-73
2023/01/21 10:51:13;;;;;;;3.38;0.85;;;19.70;99.90;;;;;;5039200;28;20033;-74
2023/01/21 10:54:03;;;;;;;15.18;2.20;;;19.60;99.90;;;;;;5029714;28;20095;-73
2023/01/21 10:56:59;;;;;;;3.65;0.73;;;19.60;99.90;;;;;;5036870;28;20033;-73
2023/01/21 10:59:31;;;;;;;7.03;0.98;;;19.60;99.90;;;;;;5049335;28;20017;-73
2023/01/21 11:02:05;;;;;;;4.70;0.95;;;19.50;99.90;;;;;;5049550;28;20017;-74
2023/01/21 11:04:33;;;;;;;7.10;1.08;;;19.50;99.90;;;;;;5049478;28;20025;-74
2023/01/21 11:07:09;;;;;;;3.25;0.80;;;19.50;99.90;;;;;;5053218;28;20115;-73
2023/01/21 11:09:43;;;;;;;6.03;0.80;;;19.60;99.90;;;;;;5053621;28;20025;-73
2023/01/21 11:12:17;;;;;;;5.50;0.82;;;19.60;99.90;;;;;;5051533;28;20137;-73
2023/01/21 11:14:56;;;;;;;5.07;0.85;;;19.60;99.90;;;;;;5057634;28;20017;-73
2023/01/21 11:17:35;;;;;;;4.80;1.63;;;19.60;99.90;;;;;;5052996;28;20551;-73
2023/01/21 11:20:25;;;;;;;3.70;0.90;;;19.60;99.90;;;;;;5053037;28;20135;-73
2023/01/21 11:22:52;;;;;;;11.13;1.08;;;19.60;99.90;;;;;;5047242;28;20045;-73
2023/01/21 11:25:41;;;;;;;5.10;1.00;;;19.60;99.90;;;;;;5049980;28;20017;-73
2023/01/21 11:28:28;;;;;;;4.38;1.02;;;19.60;99.90;;;;;;5052601;28;20036;-73
2023/01/21 11:31:07;;;;;;;7.22;1.50;;;19.70;99.90;;;;;;5051514;28;20049;-73
2023/01/21 11:33:35;;;;;;;6.88;1.40;;;19.70;99.90;;;;;;5053135;28;20045;-73
2023/01/21 11:36:15;;;;;;;9.13;1.38;;;19.70;99.90;;;;;;5052958;28;20072;-73
2023/01/21 11:38:45;;;;;;;7.07;1.00;;;19.70;99.90;;;;;;5053121;28;20024;-73
2023/01/21 11:41:13;;;;;;;7.85;0.93;;;19.70;99.90;;;;;;5052813;28;20036;-73
2023/01/21 11:43:54;;;;;;;9.75;1.10;;;19.80;99.90;;;;;;5053051;28;20029;-73
2023/01/21 11:46:39;;;;;;;5.05;0.90;;;19.70;99.90;;;;;;5053344;28;20546;-73
2023/01/21 11:49:06;;;;;;;3.50;0.80;;;19.70;99.90;;;;;;5053934;28;20025;-73
2023/01/21 11:51:34;;;;;;;6.13;1.48;;;19.70;99.90;;;;;;5053033;28;20055;-72
2023/01/21 11:54:23;;;;;;;2.40;0.80;;;19.70;99.90;;;;;;5052755;28;20036;-73
2023/01/21 11:57:03;;;;;;;5.93;1.05;;;19.60;99.90;;;;;;5052989;28;20163;-72
2023/01/21 11:59:34;;;;;;;5.15;1.02;;;19.60;99.90;;;;;;5052748;28;20021;-73
2023/01/21 12:02:10;;;;;;;6.18;0.80;;;19.50;99.90;;;;;;5052453;28;20025;-72
2023/01/21 12:04:43;;;;;;;2.50;0.68;;;19.50;99.90;;;;;;5052257;28;20025;-72
2023/01/21 12:07:28;;;;;;;3.53;0.80;;;19.40;99.90;;;;;;5051081;28;20116;-72
2023/01/21 12:10:27;;;;;;;4.32;0.82;;;19.40;99.90;;;;;;5050898;28;20068;-68
2023/01/21 12:13:13;;;;;;;3.22;1.42;;;19.50;99.90;;;;;;5051386;28;20033;-72
2023/01/21 12:16:02;;;;;;;3.35;0.95;;;19.50;99.90;;;;;;5048911;28;20025;-66
2023/01/21 12:18:58;;;;;;;8.80;1.10;;;19.40;99.90;;;;;;5050522;28;20104;-68
2023/01/21 12:22:00;;;;;;;9.60;1.25;;;19.50;99.90;;;;;;5050918;28;20025;-73
2023/01/21 12:24:55;;;;;;;6.63;1.40;;;19.50;99.90;;;;;;5027117;28;20070;-69
2023/01/21 12:28:01;;;;;;;4.32;0.70;;;19.50;99.90;;;;;;5046930;28;20489;-68
2023/01/21 12:30:33;;;;;;;;;;;19.50;99.90;;;;;;5028350;28;20033;-68
2023/01/21 12:33:11;;;;;;;2.70;0.70;;;19.50;99.90;;;;;;5050938;28;19916;-69
2023/01/21 12:35:41;;;;;;;11.00;2.55;;;19.50;99.90;;;;;;5049942;28;20082;-69
2023/01/21 12:38:37;;;;;;;8.32;1.52;;;19.50;99.90;;;;;;5050928;28;20024;-69
2023/01/21 12:41:22;;;;;;;4.03;0.93;;;19.50;99.90;;;;;;5022124;28;20029;-69
2023/01/21 12:43:57;;;;;;;4.18;0.80;;;19.50;99.90;;;;;;5050516;28;20031;-69
2023/01/21 12:46:34;;;;;;;6.22;2.60;;;19.50;99.90;;;;;;5051495;28;20029;-69
2023/01/21 12:49:20;;;;;;;3.83;1.00;;;19.50;99.90;;;;;;5049551;28;20120;-70
2023/01/21 12:52:03;;;;;;;5.28;0.98;;;19.50;99.90;;;;;;5050688;28;20047;-68
2023/01/21 12:54:49;;;;;;;4.15;1.23;;;19.50;99.90;;;;;;5050775;28;20098;-68
2023/01/21 12:57:43;;;;;;;11.18;1.65;;;19.50;99.90;;;;;;5049109;28;20029;-68
2023/01/21 13:00:20;;;;;;;6.15;0.98;;;19.50;99.90;;;;;;5050993;28;20428;-68
2023/01/21 13:03:16;;;;;;;7.28;1.85;;;19.50;99.90;;;;;;5050627;28;20101;-68
2023/01/21 13:06:08;;;;;;;5.78;0.98;;;19.50;99.90;;;;;;5049124;28;20029;-68
2023/01/21 13:09:10;;;;;;;9.20;1.63;;;19.50;99.90;;;;;;5049164;28;20036;-70
2023/01/21 13:11:48;;;;;;;8.13;1.50;;;19.50;99.90;;;;;;5039522;23;20053;-61
2023/01/21 13:14:28;;;;;;;8.18;1.75;;;19.50;99.90;;;;;;5011807;28;20030;-61
2023/01/21 13:17:00;;;;;;;6.70;2.22;;;19.50;99.90;;;;;;5011008;28;20033;-62
2023/01/21 13:19:27;;;;;;;13.32;2.33;;;19.50;99.90;;;;;;5028475;28;20025;-61
2023/01/21 13:22:01;;;;;;;7.53;1.70;;;19.50;99.90;;;;;;5017730;28;20037;-61